sensor_id;sensor_type;location;lat;lon;timestamp;P1;durP1;ratioP1;P2;durP2;ratioP2
52692;SDS011;68218;51.012;-1.648;2023-07-08T00:01:10;16.33;;;15.23;;
52692;SDS011;68218;51.012;-1.648;2023-07-08T00:03:38;12.93;;;12.02;;
52692;SDS011;68218;51.012;-1.648;2023-07-08T00:06:04;16.50;;;15.40;;
52692;SDS011;68218;51.012;-1.648;2023-07-08T00:08:29;16.33;;;15.23;;
52692;SDS011;68218;51.012;-1.648;2023-07-08T00:10:55;15.55;;;14.45;;
52692;SDS011;68218;51.012;-1.648;2023-07-08T00:13:20;15.35;;;14.25;;
52692;SDS011;68218;51.012;-1.648;2023-07-08T00:15:46;15.30;;;14.23;;
52692;SDS011;68218;51.012;-1.648;2023-07-08T00:18:15;15.85;;;14.75;;
52692;SDS011;68218;51.012;-1.648;2023-07-08T00:20:43;15.13;;;14.13;;
52692;SDS011;68218;51.012;-1.648;2023-07-08T00:23:10;12.48;;;11.57;;
52692;SDS011;68218;51.012;-1.648;2023-07-08T00:25:36;13.10;;;12.20;;
52692;SDS011;68218;51.012;-1.648;2023-07-08T00:28:13;15.80;;;14.77;;
52692;SDS011;68218;51.012;-1.648;2023-07-08T00:33:06;16.48;;;15.32;;
52692;SDS011;68218;51.012;-1.648;2023-07-08T00:38:04;16.23;;;15.15;;
52692;SDS011;68218;51.012;-1.648;2023-07-08T00:40:47;14.77;;;13.77;;
52692;SDS011;68218;51.012;-1.648;2023-07-08T00:43:48;15.43;;;14.40;;
52692;SDS011;68218;51.012;-1.648;2023-07-08T00:51:53;15.70;;;14.60;;
52692;SDS011;68218;51.012;-1.648;2023-07-08T00:54:19;16.02;;;14.93;;
52692;SDS011;68218;51.012;-1.648;2023-07-08T00:56:47;14.18;;;13.18;;
52692;SDS011;68218;51.012;-1.648;2023-07-08T01:01:47;16.88;;;15.55;;
52692;SDS011;68218;51.012;-1.648;2023-07-08T01:04:38;13.45;;;12.45;;
52692;SDS011;68218;51.012;-1.648;2023-07-08T01:07:25;15.18;;;14.18;;
52692;SDS011;68218;51.012;-1.648;2023-07-08T01:09:54;16.90;;;15.70;;
52692;SDS011;68218;51.012;-1.648;2023-07-08T01:12:27;14.82;;;13.82;;
52692;SDS011;68218;51.012;-1.648;2023-07-08T01:14:57;15.38;;;14.35;;
52692;SDS011;68218;51.012;-1.648;2023-07-08T01:17:27;16.48;;;15.38;;
52692;SDS011;68218;51.012;-1.648;2023-07-08T01:19:58;15.60;;;14.52;;
52692;SDS011;68218;51.012;-1.648;2023-07-08T01:22:24;16.80;;;15.70;;
52692;SDS011;68218;51.012;-1.648;2023-07-08T01:24:49;15.73;;;14.63;;
52692;SDS011;68218;51.012;-1.648;2023-07-08T01:27:17;16.98;;;15.80;;
52692;SDS011;68218;51.012;-1.648;2023-07-08T01:29:44;16.52;;;15.43;;
52692;SDS011;68218;51.012;-1.648;2023-07-08T01:32:12;17.35;;;16.15;;
52692;SDS011;68218;51.012;-1.648;2023-07-08T01:34:43;17.60;;;16.30;;
52692;SDS011;68218;51.012;-1.648;2023-07-08T01:37:26;16.02;;;14.93;;
52692;SDS011;68218;51.012;-1.648;2023-07-08T01:39:53;16.30;;;15.20;;
52692;SDS011;68218;51.012;-1.648;2023-07-08T01:42:19;16.85;;;15.68;;
52692;SDS011;68218;51.012;-1.648;2023-07-08T01:44:44;16.77;;;15.68;;
52692;SDS011;68218;51.012;-1.648;2023-07-08T01:47:19;16.30;;;15.20;;
52692;SDS011;68218;51.012;-1.648;2023-07-08T01:49:47;16.27;;;15.18;;
52692;SDS011;68218;51.012;-1.648;2023-07-08T01:52:13;14.13;;;13.13;;
52692;SDS011;68218;51.012;-1.648;2023-07-08T01:54:42;16.63;;;15.52;;
52692;SDS011;68218;51.012;-1.648;2023-07-08T01:57:07;16.40;;;15.30;;
52692;SDS011;68218;51.012;-1.648;2023-07-08T01:59:32;14.93;;;13.82;;
52692;SDS011;68218;51.012;-1.648;2023-07-08T02:01:58;17.20;;;16.08;;
52692;SDS011;68218;51.012;-1.648;2023-07-08T02:04:24;16.63;;;15.52;;
52692;SDS011;68218;51.012;-1.648;2023-07-08T02:06:55;16.67;;;15.57;;
52692;SDS011;68218;51.012;-1.648;2023-07-08T02:09:22;16.83;;;15.68;;
52692;SDS011;68218;51.012;-1.648;2023-07-08T02:11:48;16.35;;;15.25;;
52692;SDS011;68218;51.012;-1.648;2023-07-08T02:14:13;16.48;;;15.38;;
52692;SDS011;68218;51.012;-1.648;2023-07-08T02:16:38;16.20;;;15.10;;
52692;SDS011;68218;51.012;-1.648;2023-07-08T02:19:04;13.93;;;13.00;;
52692;SDS011;68218;51.012;-1.648;2023-07-08T02:21:29;17.00;;;15.90;;
52692;SDS011;68218;51.012;-1.648;2023-07-08T02:23:56;14.80;;;13.77;;
52692;SDS011;68218;51.012;-1.648;2023-07-08T02:26:22;16.90;;;15.80;;
52692;SDS011;68218;51.012;-1.648;2023-07-08T02:28:47;16.27;;;15.18;;
52692;SDS011;68218;51.012;-1.648;2023-07-08T02:31:13;16.77;;;15.68;;
52692;SDS011;68218;51.012;-1.648;2023-07-08T02:33:38;14.32;;;13.35;;
52692;SDS011;68218;51.012;-1.648;2023-07-08T02:36:04;15.20;;;14.20;;
52692;SDS011;68218;51.012;-1.648;2023-07-08T02:38:29;16.45;;;15.35;;
52692;SDS011;68218;51.012;-1.648;2023-07-08T02:40:55;16.40;;;15.30;;
52692;SDS011;68218;51.012;-1.648;2023-07-08T02:43:20;16.05;;;14.65;;
52692;SDS011;68218;51.012;-1.648;2023-07-08T02:45:48;15.88;;;14.77;;
52692;SDS011;68218;51.012;-1.648;2023-07-08T02:48:14;16.05;;;14.95;;
52692;SDS011;68218;51.012;-1.648;2023-07-08T02:50:40;16.75;;;15.63;;
52692;SDS011;68218;51.012;-1.648;2023-07-08T02:53:05;15.40;;;14.15;;
52692;SDS011;68218;51.012;-1.648;2023-07-08T02:55:30;16.92;;;15.82;;
52692;SDS011;68218;51.012;-1.648;2023-07-08T02:57:56;16.50;;;15.43;;
52692;SDS011;68218;51.012;-1.648;2023-07-08T03:00:21;17.65;;;16.52;;
52692;SDS011;68218;51.012;-1.648;2023-07-08T03:02:46;17.08;;;15.88;;
52692;SDS011;68218;51.012;-1.648;2023-07-08T03:05:12;16.85;;;15.75;;
52692;SDS011;68218;51.012;-1.648;2023-07-08T03:07:37;16.15;;;14.98;;
52692;SDS011;68218;51.012;-1.648;2023-07-08T03:10:03;14.25;;;13.25;;
52692;SDS011;68218;51.012;-1.648;2023-07-08T03:12:28;17.13;;;16.02;;
52692;SDS011;68218;51.012;-1.648;2023-07-08T03:14:54;16.35;;;15.20;;
52692;SDS011;68218;51.012;-1.648;2023-07-08T03:17:19;16.40;;;15.30;;
52692;SDS011;68218;51.012;-1.648;2023-07-08T03:19:45;16.27;;;15.18;;
52692;SDS011;68218;51.012;-1.648;2023-07-08T03:22:10;16.50;;;15.40;;
52692;SDS011;68218;51.012;-1.648;2023-07-08T03:24:35;17.27;;;16.17;;
52692;SDS011;68218;51.012;-1.648;2023-07-08T03:27:01;16.90;;;15.80;;
52692;SDS011;68218;51.012;-1.648;2023-07-08T03:29:30;16.67;;;15.63;;
52692;SDS011;68218;51.012;-1.648;2023-07-08T03:31:55;17.20;;;16.10;;
52692;SDS011;68218;51.012;-1.648;2023-07-08T03:34:21;16.58;;;15.48;;
52692;SDS011;68218;51.012;-1.648;2023-07-08T03:36:47;16.27;;;15.23;;
52692;SDS011;68218;51.012;-1.648;2023-07-08T03:39:15;16.83;;;15.57;;
52692;SDS011;68218;51.012;-1.648;2023-07-08T03:41:41;16.98;;;15.90;;
52692;SDS011;68218;51.012;-1.648;2023-07-08T03:44:07;18.02;;;16.83;;
52692;SDS011;68218;51.012;-1.648;2023-07-08T03:46:32;17.75;;;16.65;;
52692;SDS011;68218;51.012;-1.648;2023-07-08T03:48:57;16.65;;;15.57;;
52692;SDS011;68218;51.012;-1.648;2023-07-08T03:51:26;16.30;;;15.23;;
52692;SDS011;68218;51.012;-1.648;2023-07-08T03:53:57;16.63;;;15.55;;
52692;SDS011;68218;51.012;-1.648;2023-07-08T03:56:22;16.25;;;15.00;;
52692;SDS011;68218;51.012;-1.648;2023-07-08T03:58:48;13.27;;;12.45;;
52692;SDS011;68218;51.012;-1.648;2023-07-08T04:01:15;14.20;;;13.30;;
52692;SDS011;68218;51.012;-1.648;2023-07-08T04:03:42;15.23;;;13.93;;
52692;SDS011;68218;51.012;-1.648;2023-07-08T04:06:08;12.63;;;11.73;;
52692;SDS011;68218;51.012;-1.648;2023-07-08T04:08:34;14.85;;;13.85;;
52692;SDS011;68218;51.012;-1.648;2023-07-08T04:10:59;14.70;;;13.70;;
52692;SDS011;68218;51.012;-1.648;2023-07-08T04:13:25;15.38;;;14.38;;
52692;SDS011;68218;51.012;-1.648;2023-07-08T04:15:51;14.68;;;13.68;;
52692;SDS011;68218;51.012;-1.648;2023-07-08T04:18:21;15.93;;;14.90;;
52692;SDS011;68218;51.012;-1.648;2023-07-08T04:20:46;14.82;;;13.82;;
52692;SDS011;68218;51.012;-1.648;2023-07-08T04:23:17;15.20;;;14.20;;
52692;SDS011;68218;51.012;-1.648;2023-07-08T04:25:46;17.08;;;15.98;;
52692;SDS011;68218;51.012;-1.648;2023-07-08T04:28:12;17.13;;;15.82;;
52692;SDS011;68218;51.012;-1.648;2023-07-08T04:30:38;15.55;;;14.52;;
52692;SDS011;68218;51.012;-1.648;2023-07-08T04:33:09;15.52;;;14.43;;
52692;SDS011;68218;51.012;-1.648;2023-07-08T04:35:37;15.75;;;14.65;;
52692;SDS011;68218;51.012;-1.648;2023-07-08T04:38:04;14.90;;;13.93;;
52692;SDS011;68218;51.012;-1.648;2023-07-08T04:40:34;16.00;;;15.00;;
52692;SDS011;68218;51.012;-1.648;2023-07-08T04:43:05;16.17;;;15.07;;
52692;SDS011;68218;51.012;-1.648;2023-07-08T04:45:31;14.98;;;14.00;;
52692;SDS011;68218;51.012;-1.648;2023-07-08T04:47:57;13.30;;;12.48;;
52692;SDS011;68218;51.012;-1.648;2023-07-08T04:50:22;14.65;;;13.75;;
52692;SDS011;68218;51.012;-1.648;2023-07-08T04:52:48;15.95;;;14.85;;
52692;SDS011;68218;51.012;-1.648;2023-07-08T04:55:14;13.95;;;13.05;;
52692;SDS011;68218;51.012;-1.648;2023-07-08T04:57:40;15.50;;;14.45;;
52692;SDS011;68218;51.012;-1.648;2023-07-08T05:00:06;15.05;;;14.05;;
52692;SDS011;68218;51.012;-1.648;2023-07-08T05:02:34;16.05;;;15.05;;
52692;SDS011;68218;51.012;-1.648;2023-07-08T05:04:59;16.67;;;15.57;;
52692;SDS011;68218;51.012;-1.648;2023-07-08T05:07:24;16.30;;;15.20;;
52692;SDS011;68218;51.012;-1.648;2023-07-08T05:09:50;15.45;;;14.45;;
52692;SDS011;68218;51.012;-1.648;2023-07-08T05:12:15;15.43;;;14.38;;
52692;SDS011;68218;51.012;-1.648;2023-07-08T05:14:41;15.30;;;14.27;;
52692;SDS011;68218;51.012;-1.648;2023-07-08T05:17:07;15.52;;;14.52;;
52692;SDS011;68218;51.012;-1.648;2023-07-08T05:19:33;15.55;;;14.55;;
52692;SDS011;68218;51.012;-1.648;2023-07-08T05:21:58;15.38;;;14.27;;
52692;SDS011;68218;51.012;-1.648;2023-07-08T05:24:24;16.45;;;15.20;;
52692;SDS011;68218;51.012;-1.648;2023-07-08T05:26:49;15.20;;;14.20;;
52692;SDS011;68218;51.012;-1.648;2023-07-08T05:29:14;15.10;;;14.10;;
52692;SDS011;68218;51.012;-1.648;2023-07-08T05:31:40;14.50;;;13.50;;
52692;SDS011;68218;51.012;-1.648;2023-07-08T05:34:05;15.02;;;14.02;;
52692;SDS011;68218;51.012;-1.648;2023-07-08T05:36:30;16.17;;;15.07;;
52692;SDS011;68218;51.012;-1.648;2023-07-08T05:38:56;17.35;;;16.05;;
52692;SDS011;68218;51.012;-1.648;2023-07-08T05:41:22;15.50;;;14.40;;
52692;SDS011;68218;51.012;-1.648;2023-07-08T05:43:47;14.95;;;13.95;;
52692;SDS011;68218;51.012;-1.648;2023-07-08T05:46:13;14.20;;;13.20;;
52692;SDS011;68218;51.012;-1.648;2023-07-08T05:48:39;14.77;;;13.77;;
52692;SDS011;68218;51.012;-1.648;2023-07-08T05:51:04;16.65;;;15.40;;
52692;SDS011;68218;51.012;-1.648;2023-07-08T05:53:30;15.02;;;14.02;;
52692;SDS011;68218;51.012;-1.648;2023-07-08T05:55:55;15.10;;;14.00;;
52692;SDS011;68218;51.012;-1.648;2023-07-08T05:58:21;16.38;;;15.27;;
52692;SDS011;68218;51.012;-1.648;2023-07-08T06:00:47;15.35;;;14.35;;
52692;SDS011;68218;51.012;-1.648;2023-07-08T06:03:12;15.20;;;14.18;;
52692;SDS011;68218;51.012;-1.648;2023-07-08T06:05:38;16.25;;;15.15;;
52692;SDS011;68218;51.012;-1.648;2023-07-08T06:08:05;15.38;;;14.38;;
52692;SDS011;68218;51.012;-1.648;2023-07-08T06:10:32;15.93;;;14.82;;
52692;SDS011;68218;51.012;-1.648;2023-07-08T06:12:57;16.65;;;15.55;;
52692;SDS011;68218;51.012;-1.648;2023-07-08T06:15:23;16.27;;;15.18;;
52692;SDS011;68218;51.012;-1.648;2023-07-08T06:17:48;15.63;;;14.52;;
52692;SDS011;68218;51.012;-1.648;2023-07-08T06:20:14;15.75;;;14.75;;
52692;SDS011;68218;51.012;-1.648;2023-07-08T06:22:39;15.88;;;14.82;;
52692;SDS011;68218;51.012;-1.648;2023-07-08T06:25:04;14.95;;;13.95;;
52692;SDS011;68218;51.012;-1.648;2023-07-08T06:27:30;14.27;;;13.38;;
52692;SDS011;68218;51.012;-1.648;2023-07-08T06:29:55;15.65;;;14.65;;
52692;SDS011;68218;51.012;-1.648;2023-07-08T06:32:21;14.63;;;13.63;;
52692;SDS011;68218;51.012;-1.648;2023-07-08T06:34:46;15.70;;;14.60;;
52692;SDS011;68218;51.012;-1.648;2023-07-08T06:37:12;14.63;;;13.63;;
52692;SDS011;68218;51.012;-1.648;2023-07-08T06:39:37;14.95;;;13.95;;
52692;SDS011;68218;51.012;-1.648;2023-07-08T06:42:02;14.48;;;13.57;;
52692;SDS011;68218;51.012;-1.648;2023-07-08T06:44:28;16.33;;;15.13;;
52692;SDS011;68218;51.012;-1.648;2023-07-08T06:46:54;15.07;;;14.07;;
52692;SDS011;68218;51.012;-1.648;2023-07-08T06:49:19;12.82;;;11.98;;
52692;SDS011;68218;51.012;-1.648;2023-07-08T06:51:45;16.23;;;15.13;;
52692;SDS011;68218;51.012;-1.648;2023-07-08T06:54:10;15.25;;;14.18;;
52692;SDS011;68218;51.012;-1.648;2023-07-08T06:56:40;16.52;;;15.43;;
52692;SDS011;68218;51.012;-1.648;2023-07-08T06:59:09;13.13;;;12.23;;
52692;SDS011;68218;51.012;-1.648;2023-07-08T07:01:35;14.70;;;13.70;;
52692;SDS011;68218;51.012;-1.648;2023-07-08T07:04:02;15.77;;;14.68;;
52692;SDS011;68218;51.012;-1.648;2023-07-08T07:06:28;14.80;;;13.80;;
52692;SDS011;68218;51.012;-1.648;2023-07-08T07:08:53;14.70;;;13.70;;
52692;SDS011;68218;51.012;-1.648;2023-07-08T07:11:19;14.77;;;13.77;;
52692;SDS011;68218;51.012;-1.648;2023-07-08T07:13:45;15.00;;;14.00;;
52692;SDS011;68218;51.012;-1.648;2023-07-08T07:16:10;14.75;;;13.75;;
52692;SDS011;68218;51.012;-1.648;2023-07-08T07:18:36;12.68;;;11.68;;
52692;SDS011;68218;51.012;-1.648;2023-07-08T07:21:01;14.00;;;12.98;;
52692;SDS011;68218;51.012;-1.648;2023-07-08T07:23:27;12.27;;;11.43;;
52692;SDS011;68218;51.012;-1.648;2023-07-08T07:25:52;14.13;;;13.13;;
52692;SDS011;68218;51.012;-1.648;2023-07-08T07:28:18;15.10;;;14.00;;
52692;SDS011;68218;51.012;-1.648;2023-07-08T07:30:44;15.65;;;14.65;;
52692;SDS011;68218;51.012;-1.648;2023-07-08T07:33:10;13.13;;;12.13;;
52692;SDS011;68218;51.012;-1.648;2023-07-08T07:35:41;14.60;;;13.60;;
52692;SDS011;68218;51.012;-1.648;2023-07-08T07:38:10;14.73;;;13.63;;
52692;SDS011;68218;51.012;-1.648;2023-07-08T07:40:35;14.95;;;13.95;;
52692;SDS011;68218;51.012;-1.648;2023-07-08T07:43:01;16.35;;;15.15;;
52692;SDS011;68218;51.012;-1.648;2023-07-08T07:45:26;15.73;;;14.63;;
52692;SDS011;68218;51.012;-1.648;2023-07-08T07:47:52;19.67;;;18.38;;
52692;SDS011;68218;51.012;-1.648;2023-07-08T07:50:17;18.92;;;17.73;;
52692;SDS011;68218;51.012;-1.648;2023-07-08T07:52:43;19.25;;;18.05;;
52692;SDS011;68218;51.012;-1.648;2023-07-08T07:55:08;18.90;;;17.70;;
52692;SDS011;68218;51.012;-1.648;2023-07-08T07:57:34;22.05;;;20.65;;
52692;SDS011;68218;51.012;-1.648;2023-07-08T07:59:59;22.67;;;21.17;;
52692;SDS011;68218;51.012;-1.648;2023-07-08T08:02:25;22.58;;;21.08;;
52692;SDS011;68218;51.012;-1.648;2023-07-08T08:04:50;25.50;;;23.70;;
52692;SDS011;68218;51.012;-1.648;2023-07-08T08:07:15;25.50;;;23.70;;
52692;SDS011;68218;51.012;-1.648;2023-07-08T08:09:41;25.75;;;23.95;;
52692;SDS011;68218;51.012;-1.648;2023-07-08T08:12:07;25.33;;;23.58;;
52692;SDS011;68218;51.012;-1.648;2023-07-08T08:14:35;23.83;;;22.13;;
52692;SDS011;68218;51.012;-1.648;2023-07-08T08:17:00;22.10;;;20.45;;
52692;SDS011;68218;51.012;-1.648;2023-07-08T08:19:26;23.58;;;21.95;;
52692;SDS011;68218;51.012;-1.648;2023-07-08T08:21:51;22.60;;;21.00;;
52692;SDS011;68218;51.012;-1.648;2023-07-08T08:24:16;22.02;;;20.42;;
52692;SDS011;68218;51.012;-1.648;2023-07-08T08:26:42;22.38;;;20.77;;
52692;SDS011;68218;51.012;-1.648;2023-07-08T08:29:07;19.45;;;18.05;;
52692;SDS011;68218;51.012;-1.648;2023-07-08T08:31:32;19.20;;;17.80;;
52692;SDS011;68218;51.012;-1.648;2023-07-08T08:33:58;24.88;;;23.08;;
52692;SDS011;68218;51.012;-1.648;2023-07-08T08:36:23;22.02;;;20.45;;
52692;SDS011;68218;51.012;-1.648;2023-07-08T08:38:49;22.38;;;20.77;;
52692;SDS011;68218;51.012;-1.648;2023-07-08T08:41:18;22.60;;;21.00;;
52692;SDS011;68218;51.012;-1.648;2023-07-08T08:43:46;22.60;;;21.00;;
52692;SDS011;68218;51.012;-1.648;2023-07-08T08:51:50;24.08;;;22.42;;
52692;SDS011;68218;51.012;-1.648;2023-07-08T08:54:17;25.27;;;23.58;;
52692;SDS011;68218;51.012;-1.648;2023-07-08T09:02:38;24.20;;;22.40;;
52692;SDS011;68218;51.012;-1.648;2023-07-08T09:05:18;25.77;;;23.98;;
52692;SDS011;68218;51.012;-1.648;2023-07-08T09:07:54;24.48;;;22.77;;
52692;SDS011;68218;51.012;-1.648;2023-07-08T09:13:49;25.00;;;23.27;;
52692;SDS011;68218;51.012;-1.648;2023-07-08T09:16:20;24.05;;;22.35;;
52692;SDS011;68218;51.012;-1.648;2023-07-08T09:24:12;24.33;;;22.63;;
52692;SDS011;68218;51.012;-1.648;2023-07-08T09:26:54;24.17;;;22.33;;
52692;SDS011;68218;51.012;-1.648;2023-07-08T09:29:24;24.73;;;22.92;;
52692;SDS011;68218;51.012;-1.648;2023-07-08T09:31:49;25.17;;;23.48;;
52692;SDS011;68218;51.012;-1.648;2023-07-08T09:34:16;23.92;;;22.27;;
52692;SDS011;68218;51.012;-1.648;2023-07-08T09:36:46;24.02;;;22.33;;
52692;SDS011;68218;51.012;-1.648;2023-07-08T09:39:13;25.00;;;23.20;;
52692;SDS011;68218;51.012;-1.648;2023-07-08T09:41:41;23.48;;;21.85;;
52692;SDS011;68218;51.012;-1.648;2023-07-08T09:44:25;23.75;;;22.05;;
52692;SDS011;68218;51.012;-1.648;2023-07-08T09:46:58;24.25;;;22.55;;
52692;SDS011;68218;51.012;-1.648;2023-07-08T09:49:34;20.40;;;18.90;;
52692;SDS011;68218;51.012;-1.648;2023-07-08T09:52:00;24.40;;;22.70;;
52692;SDS011;68218;51.012;-1.648;2023-07-08T09:54:27;25.67;;;23.77;;
52692;SDS011;68218;51.012;-1.648;2023-07-08T09:59:21;25.45;;;23.55;;
52692;SDS011;68218;51.012;-1.648;2023-07-08T10:01:52;21.83;;;20.05;;
52692;SDS011;68218;51.012;-1.648;2023-07-08T10:04:19;24.52;;;22.73;;
52692;SDS011;68218;51.012;-1.648;2023-07-08T10:06:44;23.85;;;22.13;;
52692;SDS011;68218;51.012;-1.648;2023-07-08T10:09:13;20.92;;;19.33;;
52692;SDS011;68218;51.012;-1.648;2023-07-08T10:14:26;23.90;;;22.20;;
52692;SDS011;68218;51.012;-1.648;2023-07-08T10:16:58;22.90;;;21.30;;
52692;SDS011;68218;51.012;-1.648;2023-07-08T10:19:23;21.92;;;20.33;;
52692;SDS011;68218;51.012;-1.648;2023-07-08T10:24:45;21.15;;;19.65;;
52692;SDS011;68218;51.012;-1.648;2023-07-08T10:30:06;22.45;;;20.90;;
52692;SDS011;68218;51.012;-1.648;2023-07-08T10:35:21;19.50;;;18.10;;
52692;SDS011;68218;51.012;-1.648;2023-07-08T10:41:04;18.77;;;17.48;;
52692;SDS011;68218;51.012;-1.648;2023-07-08T10:43:45;17.23;;;15.98;;
52692;SDS011;68218;51.012;-1.648;2023-07-08T10:49:24;18.40;;;17.10;;
52692;SDS011;68218;51.012;-1.648;2023-07-08T10:52:17;18.52;;;17.23;;
52692;SDS011;68218;51.012;-1.648;2023-07-08T10:57:50;18.73;;;17.42;;
52692;SDS011;68218;51.012;-1.648;2023-07-08T11:03:21;18.90;;;17.52;;
52692;SDS011;68218;51.012;-1.648;2023-07-08T11:05:59;14.63;;;13.63;;
52692;SDS011;68218;51.012;-1.648;2023-07-08T11:08:40;18.70;;;17.30;;
52692;SDS011;68218;51.012;-1.648;2023-07-08T11:11:09;18.80;;;17.50;;
52692;SDS011;68218;51.012;-1.648;2023-07-08T11:13:52;17.05;;;15.75;;
52692;SDS011;68218;51.012;-1.648;2023-07-08T11:16:24;18.52;;;17.17;;
52692;SDS011;68218;51.012;-1.648;2023-07-08T11:19:04;19.52;;;18.10;;
52692;SDS011;68218;51.012;-1.648;2023-07-08T11:21:37;18.33;;;17.02;;
52692;SDS011;68218;51.012;-1.648;2023-07-08T11:27:00;19.30;;;17.90;;
52692;SDS011;68218;51.012;-1.648;2023-07-08T11:29:40;19.40;;;18.00;;
52692;SDS011;68218;51.012;-1.648;2023-07-08T11:32:19;15.43;;;14.35;;
52692;SDS011;68218;51.012;-1.648;2023-07-08T11:34:47;16.85;;;15.70;;
52692;SDS011;68218;51.012;-1.648;2023-07-08T11:37:15;18.05;;;16.75;;
52692;SDS011;68218;51.012;-1.648;2023-07-08T11:39:46;16.95;;;15.75;;
52692;SDS011;68218;51.012;-1.648;2023-07-08T11:42:34;18.10;;;16.80;;
52692;SDS011;68218;51.012;-1.648;2023-07-08T11:45:06;20.50;;;19.10;;
52692;SDS011;68218;51.012;-1.648;2023-07-08T11:47:50;19.40;;;18.00;;
52692;SDS011;68218;51.012;-1.648;2023-07-08T11:50:28;20.67;;;19.17;;
52692;SDS011;68218;51.012;-1.648;2023-07-08T11:53:00;19.38;;;18.08;;
52692;SDS011;68218;51.012;-1.648;2023-07-08T11:55:35;18.98;;;17.60;;
52692;SDS011;68218;51.012;-1.648;2023-07-08T11:58:01;19.75;;;18.25;;
52692;SDS011;68218;51.012;-1.648;2023-07-08T12:00:31;19.00;;;17.60;;
52692;SDS011;68218;51.012;-1.648;2023-07-08T12:02:58;16.65;;;15.25;;
52692;SDS011;68218;51.012;-1.648;2023-07-08T12:05:42;17.23;;;16.02;;
52692;SDS011;68218;51.012;-1.648;2023-07-08T12:08:14;20.77;;;19.27;;
52692;SDS011;68218;51.012;-1.648;2023-07-08T12:10:45;17.98;;;16.67;;
52692;SDS011;68218;51.012;-1.648;2023-07-08T12:13:14;17.50;;;16.10;;
52692;SDS011;68218;51.012;-1.648;2023-07-08T12:15:42;16.15;;;14.98;;
52692;SDS011;68218;51.012;-1.648;2023-07-08T12:18:15;18.15;;;16.85;;
52692;SDS011;68218;51.012;-1.648;2023-07-08T12:20:52;18.00;;;16.80;;
52692;SDS011;68218;51.012;-1.648;2023-07-08T12:23:20;18.45;;;17.20;;
52692;SDS011;68218;51.012;-1.648;2023-07-08T12:25:47;17.30;;;16.13;;
52692;SDS011;68218;51.012;-1.648;2023-07-08T12:28:13;14.13;;;13.13;;
52692;SDS011;68218;51.012;-1.648;2023-07-08T12:30:39;16.80;;;15.60;;
52692;SDS011;68218;51.012;-1.648;2023-07-08T12:33:09;17.15;;;16.05;;
52692;SDS011;68218;51.012;-1.648;2023-07-08T12:35:38;17.92;;;16.73;;
52692;SDS011;68218;51.012;-1.648;2023-07-08T12:38:13;16.73;;;15.60;;
52692;SDS011;68218;51.012;-1.648;2023-07-08T12:40:44;17.25;;;16.15;;
52692;SDS011;68218;51.012;-1.648;2023-07-08T12:43:10;17.95;;;16.75;;
52692;SDS011;68218;51.012;-1.648;2023-07-08T12:45:35;18.02;;;16.83;;
52692;SDS011;68218;51.012;-1.648;2023-07-08T12:48:02;21.02;;;19.58;;
52692;SDS011;68218;51.012;-1.648;2023-07-08T12:50:28;22.92;;;21.33;;
52692;SDS011;68218;51.012;-1.648;2023-07-08T12:52:53;23.48;;;21.77;;
52692;SDS011;68218;51.012;-1.648;2023-07-08T12:55:18;25.10;;;23.30;;
52692;SDS011;68218;51.012;-1.648;2023-07-08T12:57:47;24.48;;;22.67;;
52692;SDS011;68218;51.012;-1.648;2023-07-08T13:00:25;31.55;;;29.25;;
52692;SDS011;68218;51.012;-1.648;2023-07-08T13:02:56;23.73;;;22.02;;
52692;SDS011;68218;51.012;-1.648;2023-07-08T13:05:28;24.70;;;22.90;;
52692;SDS011;68218;51.012;-1.648;2023-07-08T13:07:54;23.27;;;21.67;;
52692;SDS011;68218;51.012;-1.648;2023-07-08T13:10:23;31.40;;;29.23;;
52692;SDS011;68218;51.012;-1.648;2023-07-08T13:12:51;20.10;;;18.70;;
52692;SDS011;68218;51.012;-1.648;2023-07-08T13:15:33;19.85;;;18.52;;
52692;SDS011;68218;51.012;-1.648;2023-07-08T13:18:01;21.15;;;19.75;;
52692;SDS011;68218;51.012;-1.648;2023-07-08T13:20:27;19.13;;;17.83;;
52692;SDS011;68218;51.012;-1.648;2023-07-08T13:22:58;20.52;;;19.13;;
52692;SDS011;68218;51.012;-1.648;2023-07-08T13:25:28;18.80;;;17.50;;
52692;SDS011;68218;51.012;-1.648;2023-07-08T13:27:56;19.30;;;17.95;;
52692;SDS011;68218;51.012;-1.648;2023-07-08T13:30:27;19.60;;;18.20;;
52692;SDS011;68218;51.012;-1.648;2023-07-08T13:32:54;19.38;;;17.50;;
52692;SDS011;68218;51.012;-1.648;2023-07-08T13:35:23;16.33;;;15.10;;
52692;SDS011;68218;51.012;-1.648;2023-07-08T13:38:05;17.67;;;16.48;;
52692;SDS011;68218;51.012;-1.648;2023-07-08T13:40:30;17.77;;;16.52;;
52692;SDS011;68218;51.012;-1.648;2023-07-08T13:42:57;19.42;;;18.13;;
52692;SDS011;68218;51.012;-1.648;2023-07-08T13:45:24;17.70;;;16.38;;
52692;SDS011;68218;51.012;-1.648;2023-07-08T13:48:01;16.73;;;15.45;;
52692;SDS011;68218;51.012;-1.648;2023-07-08T13:50:39;17.30;;;16.10;;
52692;SDS011;68218;51.012;-1.648;2023-07-08T13:53:44;23.45;;;21.85;;
52692;SDS011;68218;51.012;-1.648;2023-07-08T13:56:10;26.38;;;24.58;;
52692;SDS011;68218;51.012;-1.648;2023-07-08T13:58:42;17.92;;;16.70;;
52692;SDS011;68218;51.012;-1.648;2023-07-08T14:01:17;21.33;;;19.75;;
52692;SDS011;68218;51.012;-1.648;2023-07-08T14:03:44;19.92;;;18.52;;
52692;SDS011;68218;51.012;-1.648;2023-07-08T14:06:13;16.88;;;15.63;;
52692;SDS011;68218;51.012;-1.648;2023-07-08T14:08:40;15.90;;;14.70;;
52692;SDS011;68218;51.012;-1.648;2023-07-08T14:11:06;24.70;;;23.10;;
52692;SDS011;68218;51.012;-1.648;2023-07-08T14:13:31;19.15;;;17.75;;
52692;SDS011;68218;51.012;-1.648;2023-07-08T14:15:58;22.35;;;20.75;;
52692;SDS011;68218;51.012;-1.648;2023-07-08T14:18:23;21.52;;;19.88;;
52692;SDS011;68218;51.012;-1.648;2023-07-08T14:20:49;14.95;;;13.82;;
52692;SDS011;68218;51.012;-1.648;2023-07-08T14:23:14;15.68;;;14.65;;
52692;SDS011;68218;51.012;-1.648;2023-07-08T14:25:40;16.13;;;15.02;;
52692;SDS011;68218;51.012;-1.648;2023-07-08T14:28:05;22.45;;;20.88;;
52692;SDS011;68218;51.012;-1.648;2023-07-08T14:30:31;24.17;;;22.48;;
52692;SDS011;68218;51.012;-1.648;2023-07-08T14:32:59;23.50;;;21.90;;
52692;SDS011;68218;51.012;-1.648;2023-07-08T14:35:27;24.30;;;22.60;;
52692;SDS011;68218;51.012;-1.648;2023-07-08T14:37:54;17.00;;;15.80;;
52692;SDS011;68218;51.012;-1.648;2023-07-08T14:40:32;21.50;;;19.85;;
52692;SDS011;68218;51.012;-1.648;2023-07-08T14:43:06;21.05;;;19.55;;
52692;SDS011;68218;51.012;-1.648;2023-07-08T14:45:39;16.25;;;15.05;;
52692;SDS011;68218;51.012;-1.648;2023-07-08T14:48:10;15.68;;;14.57;;
52692;SDS011;68218;51.012;-1.648;2023-07-08T14:50:36;16.77;;;15.55;;
52692;SDS011;68218;51.012;-1.648;2023-07-08T14:53:02;16.35;;;15.18;;
52692;SDS011;68218;51.012;-1.648;2023-07-08T14:55:28;14.88;;;13.88;;
52692;SDS011;68218;51.012;-1.648;2023-07-08T14:57:53;16.25;;;15.15;;
52692;SDS011;68218;51.012;-1.648;2023-07-08T15:00:21;15.73;;;14.63;;
52692;SDS011;68218;51.012;-1.648;2023-07-08T15:02:47;15.18;;;14.07;;
52692;SDS011;68218;51.012;-1.648;2023-07-08T15:05:14;14.05;;;13.13;;
52692;SDS011;68218;51.012;-1.648;2023-07-08T15:07:47;15.20;;;14.20;;
52692;SDS011;68218;51.012;-1.648;2023-07-08T15:10:14;13.60;;;12.68;;
52692;SDS011;68218;51.012;-1.648;2023-07-08T15:12:40;15.38;;;14.30;;
52692;SDS011;68218;51.012;-1.648;2023-07-08T15:15:08;15.13;;;13.93;;
52692;SDS011;68218;51.012;-1.648;2023-07-08T15:17:40;14.50;;;13.30;;